VTBO

Trat Airport

Thailand
TAF VTBO 190500Z 1906/2006 09008KT 9999 FEW020 BECMG 1908/1910 20005KT TEMPO 1912/1915 VRB15KT 6000 -TSRA FEW018CB SCT022 BECMG 1918/1920 00000KT 8000 BECMG 1923/2001 02005KT 5000 BR BECMG 2003/2005 08008KT 8000 NSW
Issued Valid From Valid To
Oct-19 @ 05:00 UTC
(5 hours ago)
Oct-19 @ 06:00 UTC
(4 hours ago)
Oct-20 @ 06:00 UTC
(in 20 hours)
Expired Click to View Oct-19 @ 06:00 to Oct-19 @ 08:00
TAF VTBO 190500Z 1906/2006 09008KT 9999 FEW020
Wind Visibility Clouds
90° at 8 knots 10,000+ meters
  • Few at 2,000' AGL
Becoming Oct-19 @ 08:00 to Oct-19 @ 18:00
BECMG 1908/1910 20005KT
Wind Visibility Clouds
200° at 5 knots 10,000+ meters
  • Few at 2,000' AGL
Temporary Oct-19 @ 12:00 to Oct-19 @ 15:00
TEMPO 1912/1915 VRB15KT 6000 -TSRA FEW018CB SCT022
Wind Visibility Clouds Conditions
Variable at 15 knots 6,003 meters
  • Few at 1,800' AGL
  • Scattered at 2,200' AGL
  • Light Thunderstorm
  • Light Rain
Becoming Oct-19 @ 18:00 to Oct-19 @ 23:00
BECMG 1918/1920 00000KT 8000
Visibility Clouds
7,998 meters
  • Few at 2,000' AGL
Becoming Oct-19 @ 23:00 to Oct-20 @ 03:00
BECMG 1923/2001 02005KT 5000 BR
Wind Visibility Clouds Conditions
20° at 5 knots 5,005 meters
  • Few at 2,000' AGL
  • Mist
Becoming Oct-20 @ 03:00 to Oct-20 @ 06:00
BECMG 2003/2005 08008KT 8000 NSW
Wind Visibility Clouds Conditions
80° at 8 knots 7,998 meters
  • Few at 2,000' AGL
TAF VTBO 190500Z 1906/2006 09008KT 9999 FEW020 BECMG 1908/1910 20005KT TEMPO 1912/1915 VRB15KT 6000 -TSRA FEW018CB SCT022 BECMG 1918/1920 00000KT 8000 BECMG 1923/2001 02005KT 5000 BR BECMG 2003/2005 08008KT 8000 NSW
Issued Oct-19 @ 05:00 UTC
(5 hours ago)
Valid From Oct-19 @ 06:00 UTC
(4 hours ago)
Valid To Oct-20 @ 06:00 UTC
(in 20 hours)
Oct-19 @ 06:00 - Oct-19 @ 08:00
Wind Visibility
90° at 8 knots 10,000+ meters
Clouds
  • Few at 2,000' AGL
Becoming Oct-19 @ 08:00 - Oct-19 @ 18:00
Wind Visibility
200° at 5 knots 10,000+ meters
Clouds
  • Few at 2,000' AGL
Temporary Oct-19 @ 12:00 - Oct-19 @ 15:00
Wind Visibility
Variable at 15 knots 6,003 meters
Clouds
  • Few at 1,800' AGL
  • Scattered at 2,200' AGL
Conditions
  • Light Thunderstorm
  • Light Rain
Becoming Oct-19 @ 18:00 - Oct-19 @ 23:00
Clouds
  • Few at 2,000' AGL
Becoming Oct-19 @ 23:00 - Oct-20 @ 03:00
Wind Visibility
20° at 5 knots 5,005 meters
Clouds
  • Few at 2,000' AGL
Conditions
  • Mist
Becoming Oct-20 @ 03:00 - Oct-20 @ 06:00
Wind Visibility
80° at 8 knots 7,998 meters
Clouds
  • Few at 2,000' AGL
Conditions